createdAt,value
2022-12-22T00:01:27.229Z,22.26
2022-12-22T00:03:53.667Z,22.26
2022-12-22T00:06:19.947Z,22.26
2022-12-22T00:08:46.285Z,22.26
2022-12-22T00:11:12.668Z,22.27
2022-12-22T00:13:39.006Z,22.28
2022-12-22T00:16:05.405Z,22.33
2022-12-22T00:18:31.753Z,22.31
2022-12-22T00:20:58.127Z,22.28
2022-12-22T00:23:24.486Z,22.25
2022-12-22T00:25:50.867Z,22.24
2022-12-22T00:28:17.236Z,22.25
2022-12-22T00:30:43.632Z,22.25
2022-12-22T00:33:09.940Z,22.25
2022-12-22T00:35:36.335Z,22.27
2022-12-22T00:38:02.675Z,22.26
2022-12-22T00:40:29.053Z,22.26
2022-12-22T00:42:55.425Z,22.25
2022-12-22T00:45:21.793Z,22.25
2022-12-22T00:47:48.134Z,22.24
2022-12-22T00:50:14.516Z,22.23
2022-12-22T00:52:40.859Z,22.25
2022-12-22T00:55:07.277Z,22.26
2022-12-22T00:57:33.638Z,22.26
2022-12-22T01:00:00.026Z,22.26
2022-12-22T01:02:26.549Z,22.26
2022-12-22T01:04:52.750Z,22.25
2022-12-22T01:07:19.094Z,22.25
2022-12-22T01:09:45.467Z,22.25
2022-12-22T01:12:11.845Z,22.23
2022-12-22T01:14:39.717Z,22.24
2022-12-22T01:17:04.619Z,22.24
2022-12-22T01:19:31.016Z,22.24
2022-12-22T01:21:57.344Z,22.23
2022-12-22T01:24:23.707Z,22.23
2022-12-22T01:26:50.092Z,22.25
2022-12-22T01:29:16.434Z,22.24
2022-12-22T01:31:43.771Z,22.23
2022-12-22T01:34:09.152Z,22.25
2022-12-22T01:36:35.541Z,22.24
2022-12-22T01:39:01.876Z,22.24
2022-12-22T01:41:28.279Z,22.24
2022-12-22T01:43:54.620Z,22.25
2022-12-22T01:46:21.028Z,22.24
2022-12-22T01:48:47.338Z,22.24
2022-12-22T01:51:13.754Z,22.24
2022-12-22T01:53:40.155Z,22.24
2022-12-22T01:56:06.539Z,22.23
2022-12-22T01:58:32.874Z,22.24
2022-12-22T02:00:59.259Z,22.25
2022-12-22T02:03:25.656Z,22.28
2022-12-22T02:05:52.001Z,22.24
2022-12-22T02:08:18.336Z,22.26
2022-12-22T02:10:44.715Z,22.28
2022-12-22T02:13:11.062Z,22.25
2022-12-22T02:15:39.300Z,22.24
2022-12-22T02:18:03.787Z,22.23
2022-12-22T02:20:30.169Z,22.22
2022-12-22T02:22:56.506Z,22.23
2022-12-22T02:25:22.899Z,22.23
2022-12-22T02:27:49.249Z,22.22
2022-12-22T02:30:15.640Z,22.22
2022-12-22T02:32:41.983Z,22.22
2022-12-22T02:35:08.365Z,22.24
2022-12-22T02:37:34.709Z,22.23
2022-12-22T02:40:01.097Z,22.23
2022-12-22T02:42:27.450Z,22.21
2022-12-22T02:44:53.827Z,22.22
2022-12-22T02:47:20.184Z,22.23
2022-12-22T02:49:46.592Z,22.22
2022-12-22T02:52:12.936Z,22.21
2022-12-22T02:54:39.332Z,22.22
2022-12-22T02:57:05.681Z,22.22
2022-12-22T02:59:32.088Z,22.21
2022-12-22T03:01:58.624Z,22.21
2022-12-22T03:04:24.805Z,22.22
2022-12-22T03:06:51.159Z,22.23
2022-12-22T03:09:17.580Z,22.25
2022-12-22T03:11:43.940Z,22.22
2022-12-22T03:14:10.333Z,22.22
2022-12-22T03:16:36.707Z,22.22
2022-12-22T03:19:03.071Z,22.22
2022-12-22T03:21:29.422Z,22.21
2022-12-22T03:23:57.027Z,22.20
2022-12-22T03:26:22.194Z,22.20
2022-12-22T03:28:48.579Z,22.21
2022-12-22T03:31:14.980Z,22.19
2022-12-22T03:33:41.329Z,22.21
2022-12-22T03:36:07.701Z,22.22
2022-12-22T03:38:34.097Z,22.21
2022-12-22T03:41:00.450Z,22.22
2022-12-22T03:43:26.837Z,22.22
2022-12-22T03:45:53.182Z,22.22
2022-12-22T03:48:19.577Z,22.23
2022-12-22T03:50:45.923Z,22.24
2022-12-22T03:53:12.317Z,22.25
2022-12-22T03:55:38.671Z,22.22
2022-12-22T03:58:05.059Z,22.23
2022-12-22T04:00:31.421Z,22.23
2022-12-22T04:02:57.894Z,22.24
2022-12-22T04:05:24.129Z,22.24
2022-12-22T04:07:50.558Z,22.25
2022-12-22T04:10:16.895Z,22.25
2022-12-22T04:12:43.301Z,22.27
2022-12-22T04:15:09.614Z,22.27
2022-12-22T04:17:36.030Z,22.31
2022-12-22T04:20:02.374Z,22.29
2022-12-22T04:22:28.843Z,22.31
2022-12-22T04:24:55.145Z,22.31
2022-12-22T04:27:21.552Z,22.29
2022-12-22T04:29:47.888Z,22.31
2022-12-22T04:32:14.398Z,22.29
2022-12-22T04:34:40.641Z,22.29
2022-12-22T04:37:16.524Z,22.27
2022-12-22T04:39:33.365Z,22.27
2022-12-22T04:41:59.788Z,22.27
2022-12-22T04:44:26.123Z,22.28
2022-12-22T04:46:52.509Z,22.26
2022-12-22T04:49:18.857Z,22.27
2022-12-22T04:51:45.261Z,22.27
2022-12-22T04:54:11.641Z,22.26
2022-12-22T04:56:38.049Z,22.26
2022-12-22T04:59:04.393Z,22.27
2022-12-22T05:01:30.909Z,22.31
2022-12-22T05:03:57.127Z,22.32
2022-12-22T05:06:23.512Z,22.33
2022-12-22T05:08:49.849Z,22.37
2022-12-22T05:11:16.235Z,22.37
2022-12-22T05:13:42.581Z,22.38
2022-12-22T05:16:09.037Z,22.37
2022-12-22T05:18:35.326Z,22.39
2022-12-22T05:21:01.709Z,22.41
2022-12-22T05:23:28.040Z,22.41
2022-12-22T05:25:54.422Z,22.42
2022-12-22T05:28:20.761Z,22.44
2022-12-22T05:30:47.204Z,22.49
2022-12-22T05:33:13.512Z,22.51
2022-12-22T05:35:39.891Z,22.53
2022-12-22T05:38:06.263Z,22.56
2022-12-22T05:40:32.656Z,22.63
2022-12-22T05:42:59.032Z,22.67
2022-12-22T05:45:25.420Z,22.69
2022-12-22T05:47:51.780Z,22.73
2022-12-22T05:50:18.144Z,22.80
2022-12-22T05:52:44.486Z,22.86
2022-12-22T05:55:10.883Z,22.88
2022-12-22T05:57:37.221Z,22.93
2022-12-22T06:00:03.642Z,22.94
2022-12-22T06:02:30.103Z,22.96
2022-12-22T06:04:56.363Z,22.99
2022-12-22T06:07:22.705Z,23.01
2022-12-22T06:09:49.093Z,23.00
2022-12-22T06:12:15.520Z,23.02
2022-12-22T06:14:41.908Z,23.02
2022-12-22T06:17:08.256Z,23.06
2022-12-22T06:19:34.671Z,22.99
2022-12-22T06:22:01.010Z,22.98
2022-12-22T06:24:27.391Z,23.01
2022-12-22T06:26:53.755Z,23.10
2022-12-22T06:29:20.145Z,23.09
2022-12-22T06:31:46.541Z,23.15
2022-12-22T06:34:12.898Z,23.25
2022-12-22T06:36:39.270Z,23.32
2022-12-22T06:39:05.655Z,23.38
2022-12-22T06:41:32.005Z,23.44
2022-12-22T06:43:59.841Z,23.50
2022-12-22T06:46:24.770Z,23.56
2022-12-22T06:48:51.139Z,23.61
2022-12-22T06:51:17.482Z,23.67
2022-12-22T06:53:43.864Z,23.71
2022-12-22T06:56:10.210Z,23.75
2022-12-22T06:58:36.613Z,23.81
2022-12-22T07:01:02.958Z,23.82
2022-12-22T07:03:29.441Z,23.84
2022-12-22T07:05:55.682Z,23.85
2022-12-22T07:08:22.075Z,23.91
2022-12-22T07:10:48.414Z,23.94
2022-12-22T07:13:14.875Z,23.95
2022-12-22T07:15:41.177Z,24.00
2022-12-22T07:18:07.630Z,24.03
2022-12-22T07:20:33.979Z,24.00
2022-12-22T07:23:00.439Z,24.05
2022-12-22T07:25:26.789Z,24.05
2022-12-22T07:27:53.161Z,24.05
2022-12-22T07:30:19.520Z,24.08
2022-12-22T07:32:45.904Z,24.09
2022-12-22T07:35:12.255Z,24.08
2022-12-22T07:37:38.678Z,24.10
2022-12-22T07:40:05.032Z,24.14
2022-12-22T07:42:31.451Z,24.18
2022-12-22T07:44:57.846Z,24.14
2022-12-22T07:47:27.279Z,24.15
2022-12-22T07:49:50.536Z,24.15
2022-12-22T07:52:16.920Z,24.14
2022-12-22T07:54:43.270Z,24.10
2022-12-22T07:57:09.670Z,24.13
2022-12-22T07:59:37.279Z,24.10
2022-12-22T08:02:02.574Z,24.06
2022-12-22T08:04:28.904Z,24.08
2022-12-22T08:06:55.245Z,24.10
2022-12-22T08:09:21.764Z,24.09
2022-12-22T08:11:47.976Z,24.10
2022-12-22T08:14:14.324Z,24.09
2022-12-22T08:16:40.743Z,24.10
2022-12-22T08:19:07.039Z,24.12
2022-12-22T08:21:33.438Z,24.14
2022-12-22T08:23:59.792Z,24.13
2022-12-22T08:26:26.165Z,24.13
2022-12-22T08:28:52.526Z,24.15
2022-12-22T08:31:18.939Z,24.16
2022-12-22T08:33:45.245Z,24.17
2022-12-22T08:36:11.646Z,24.20
2022-12-22T08:38:37.997Z,24.20
2022-12-22T08:41:04.380Z,24.23
2022-12-22T08:43:30.725Z,24.18
2022-12-22T08:45:57.119Z,24.23
2022-12-22T08:48:23.471Z,24.24
2022-12-22T08:50:49.864Z,24.24
2022-12-22T08:53:45.174Z,24.24
2022-12-22T08:55:42.595Z,24.23
2022-12-22T08:58:08.935Z,24.16
2022-12-22T09:00:35.363Z,24.17
2022-12-22T09:03:01.779Z,24.18
2022-12-22T09:05:28.087Z,24.21
2022-12-22T09:07:54.434Z,24.21
2022-12-22T09:10:20.840Z,24.23
2022-12-22T09:12:47.185Z,24.19
2022-12-22T09:15:13.572Z,24.19
2022-12-22T09:17:39.919Z,24.19
2022-12-22T09:20:06.331Z,24.17
2022-12-22T09:22:32.676Z,24.16
2022-12-22T09:24:59.087Z,24.17
2022-12-22T09:27:25.432Z,24.15
2022-12-22T09:29:51.819Z,24.20
2022-12-22T09:32:18.200Z,24.16
2022-12-22T09:34:45.516Z,24.16
2022-12-22T09:37:10.953Z,24.19
2022-12-22T09:39:37.327Z,24.24
2022-12-22T09:42:04.890Z,24.19
2022-12-22T09:44:30.052Z,24.21
2022-12-22T09:46:56.388Z,24.21
2022-12-22T09:49:22.773Z,24.21
2022-12-22T09:51:49.116Z,24.23
2022-12-22T09:54:15.514Z,24.21
2022-12-22T09:56:41.890Z,24.24
2022-12-22T09:59:08.303Z,24.21
2022-12-22T10:01:34.806Z,24.28
2022-12-22T10:04:01.350Z,24.36
2022-12-22T10:06:27.411Z,24.33
2022-12-22T10:08:53.803Z,24.35
2022-12-22T10:11:20.157Z,24.41
2022-12-22T10:13:48.665Z,24.34
2022-12-22T10:16:15.027Z,24.42
2022-12-22T10:18:41.379Z,24.46
2022-12-22T10:21:07.747Z,24.42
2022-12-22T10:23:34.113Z,24.47
2022-12-22T10:26:27.332Z,24.49
2022-12-22T10:28:26.827Z,24.48
2022-12-22T10:30:53.171Z,24.46
2022-12-22T10:33:19.560Z,24.49
2022-12-22T10:35:45.915Z,24.64
2022-12-22T10:38:21.410Z,24.56
2022-12-22T10:40:38.636Z,24.55
2022-12-22T10:43:05.032Z,24.50
2022-12-22T10:45:31.395Z,24.53
2022-12-22T10:47:57.783Z,24.57
2022-12-22T10:50:24.073Z,24.61
2022-12-22T10:52:50.501Z,24.65
2022-12-22T10:55:16.909Z,24.60
2022-12-22T10:57:43.243Z,24.58
2022-12-22T11:00:09.592Z,24.64
2022-12-22T11:02:36.109Z,24.54
2022-12-22T11:05:02.308Z,24.54
2022-12-22T11:07:28.682Z,24.54
2022-12-22T11:09:55.025Z,24.57
2022-12-22T11:12:21.430Z,24.53
2022-12-22T11:14:47.768Z,24.59
2022-12-22T11:17:14.220Z,24.56
2022-12-22T11:19:40.501Z,24.62
2022-12-22T11:22:06.868Z,24.63
2022-12-22T11:24:33.209Z,24.64
2022-12-22T11:26:59.593Z,24.63
2022-12-22T11:29:25.932Z,24.59
2022-12-22T11:31:52.336Z,24.71
2022-12-22T11:34:21.301Z,24.69
2022-12-22T11:36:45.066Z,24.66
2022-12-22T11:39:11.409Z,24.61
2022-12-22T11:41:37.780Z,24.55
2022-12-22T11:44:04.144Z,24.51
2022-12-22T11:46:30.549Z,24.49
2022-12-22T11:48:56.857Z,24.49
2022-12-22T11:51:27.677Z,24.49
2022-12-22T11:53:49.577Z,24.48
2022-12-22T11:56:15.975Z,24.44
2022-12-22T11:58:42.380Z,24.46
2022-12-22T12:01:22.410Z,24.44
2022-12-22T12:03:35.179Z,24.46
2022-12-22T12:06:01.428Z,24.44
2022-12-22T12:08:27.843Z,24.51
2022-12-22T12:10:54.173Z,24.48
2022-12-22T12:13:28.663Z,24.49
2022-12-22T12:15:46.957Z,24.49
2022-12-22T12:18:13.306Z,24.49
2022-12-22T12:20:39.647Z,24.46
2022-12-22T12:23:06.035Z,24.47
2022-12-22T12:25:32.429Z,24.56
2022-12-22T12:27:58.791Z,24.49
2022-12-22T12:30:40.437Z,24.50
2022-12-22T12:32:51.553Z,24.54
2022-12-22T12:35:17.865Z,24.54
2022-12-22T12:37:44.281Z,24.57
2022-12-22T12:40:10.675Z,24.56
2022-12-22T12:42:37.030Z,24.51
2022-12-22T12:45:03.404Z,24.54
2022-12-22T12:47:29.785Z,24.59
2022-12-22T12:49:56.155Z,24.55
2022-12-22T12:52:22.534Z,24.54
2022-12-22T12:54:48.908Z,24.48
2022-12-22T12:57:16.325Z,24.49
2022-12-22T12:59:41.672Z,24.47
2022-12-22T13:02:08.229Z,24.48
2022-12-22T13:04:34.431Z,24.49
2022-12-22T13:07:00.838Z,24.56
2022-12-22T13:12:11.749Z,24.51
2022-12-22T13:14:20.051Z,24.55
2022-12-22T13:16:46.434Z,24.61
2022-12-22T13:19:12.688Z,24.60
2022-12-22T13:21:55.211Z,24.57
2022-12-22T13:24:24.082Z,24.49
2022-12-22T13:26:31.821Z,24.51
2022-12-22T13:28:58.157Z,24.45
2022-12-22T13:31:24.604Z,24.50
2022-12-22T13:36:29.174Z,24.49
2022-12-22T13:38:55.587Z,24.50
2022-12-22T13:41:27.202Z,24.50
2022-12-22T13:43:48.351Z,24.50
2022-12-22T13:46:14.755Z,24.46
2022-12-22T13:48:44.743Z,24.51
2022-12-22T13:51:07.452Z,24.43
2022-12-22T13:56:00.219Z,24.42
2022-12-22T13:58:26.589Z,24.48
2022-12-22T14:00:52.976Z,24.51
2022-12-22T14:03:41.709Z,24.51
2022-12-22T14:05:45.747Z,24.50
2022-12-22T14:08:12.074Z,24.50
2022-12-22T14:10:38.459Z,24.56
2022-12-22T14:13:04.906Z,24.53
2022-12-22T14:15:31.267Z,24.51
2022-12-22T14:17:57.641Z,24.49
2022-12-22T14:20:24.075Z,24.50
2022-12-22T14:22:50.471Z,24.50
2022-12-22T14:25:16.830Z,24.50
2022-12-22T14:27:43.216Z,24.49
2022-12-22T14:30:09.566Z,24.36
2022-12-22T14:32:35.950Z,24.34
2022-12-22T14:35:02.580Z,24.44
2022-12-22T14:37:32.936Z,24.41
2022-12-22T14:39:55.338Z,24.41
2022-12-22T14:42:21.716Z,24.48
2022-12-22T14:44:48.054Z,24.54
2022-12-22T14:47:14.435Z,24.53
2022-12-22T14:49:40.867Z,24.59
2022-12-22T14:52:07.251Z,24.65
2022-12-22T14:54:33.577Z,24.66
2022-12-22T14:57:00.008Z,24.66
2022-12-22T14:59:26.348Z,24.70
2022-12-22T15:01:52.900Z,24.71
2022-12-22T15:04:19.091Z,24.77
2022-12-22T15:06:45.486Z,24.85
2022-12-22T15:09:11.918Z,24.85
2022-12-22T15:11:38.245Z,24.98
2022-12-22T15:14:04.606Z,24.89
2022-12-22T15:16:31.033Z,24.92
2022-12-22T15:18:57.327Z,24.82
2022-12-22T15:21:24.903Z,24.74
2022-12-22T15:23:50.038Z,24.59
2022-12-22T15:26:16.451Z,24.46
2022-12-22T15:28:42.810Z,24.36
2022-12-22T15:31:09.220Z,24.35
2022-12-22T15:33:35.532Z,24.30
2022-12-22T15:36:01.937Z,24.25
2022-12-22T15:38:32.174Z,24.26
2022-12-22T15:40:54.766Z,24.27
2022-12-22T15:45:47.508Z,24.28
2022-12-22T15:48:13.829Z,24.27
2022-12-22T15:50:40.235Z,24.24
2022-12-22T15:53:06.580Z,24.32
2022-12-22T15:55:32.994Z,24.38
2022-12-22T15:57:59.354Z,24.34
2022-12-22T16:00:25.729Z,24.32
2022-12-22T16:02:52.297Z,24.30
2022-12-22T16:05:18.525Z,24.29
2022-12-22T16:07:44.851Z,24.28
2022-12-22T16:10:11.249Z,24.20
2022-12-22T16:12:37.629Z,24.12
2022-12-22T16:15:04.003Z,24.10
2022-12-22T16:17:30.347Z,24.19
2022-12-22T16:19:56.742Z,24.23
2022-12-22T16:22:24.292Z,24.13
2022-12-22T16:24:49.503Z,24.13
2022-12-22T16:27:15.842Z,24.14
2022-12-22T16:29:43.286Z,24.11
2022-12-22T16:32:15.327Z,24.10
2022-12-22T16:34:36.054Z,24.15
2022-12-22T16:37:02.397Z,24.16
2022-12-22T16:39:28.771Z,24.13
2022-12-22T16:41:59.888Z,24.10
2022-12-22T16:44:23.993Z,24.04
2022-12-22T16:46:50.388Z,24.03
2022-12-22T16:49:20.116Z,24.09
2022-12-22T16:51:43.118Z,24.12
2022-12-22T16:54:10.746Z,24.09
2022-12-22T16:56:35.869Z,24.06
2022-12-22T16:59:03.215Z,24.14
2022-12-22T17:01:28.695Z,24.15
2022-12-22T17:03:55.057Z,24.18
2022-12-22T17:06:21.445Z,24.09
2022-12-22T17:08:50.707Z,24.05
2022-12-22T17:11:17.053Z,24.03
2022-12-22T17:13:43.441Z,23.99
2022-12-22T17:16:09.917Z,23.96
2022-12-22T17:18:36.232Z,23.94
2022-12-22T17:21:02.561Z,23.96
2022-12-22T17:23:28.942Z,23.94
2022-12-22T17:25:55.276Z,23.89
2022-12-22T17:28:21.675Z,23.85
2022-12-22T17:30:48.068Z,23.84
2022-12-22T17:33:14.427Z,23.82
2022-12-22T17:35:40.772Z,23.74
2022-12-22T17:38:07.180Z,23.73
2022-12-22T17:40:33.554Z,23.73
2022-12-22T17:42:59.924Z,23.74
2022-12-22T17:45:26.269Z,23.75
2022-12-22T17:47:52.666Z,23.74
2022-12-22T17:50:19.005Z,23.73
2022-12-22T17:52:45.421Z,23.70
2022-12-22T17:55:11.795Z,23.64
2022-12-22T17:57:38.183Z,23.65
2022-12-22T18:00:04.532Z,23.68
2022-12-22T18:02:31.062Z,23.64
2022-12-22T18:04:57.303Z,23.58
2022-12-22T18:07:23.712Z,23.59
2022-12-22T18:09:50.107Z,23.61
2022-12-22T18:12:16.504Z,23.60
2022-12-22T18:14:42.885Z,23.58
2022-12-22T18:17:09.316Z,23.54
2022-12-22T18:19:35.660Z,23.53
2022-12-22T18:22:02.063Z,23.52
2022-12-22T18:24:28.402Z,23.51
2022-12-22T18:26:54.814Z,23.51
2022-12-22T18:29:21.156Z,23.51
2022-12-22T18:31:47.711Z,23.50
2022-12-22T18:34:14.005Z,23.49
2022-12-22T18:36:40.380Z,23.49
2022-12-22T18:39:10.543Z,23.49
2022-12-22T18:41:33.123Z,23.54
2022-12-22T18:43:59.479Z,23.52
2022-12-22T18:46:25.888Z,23.53
2022-12-22T18:48:52.227Z,23.52
2022-12-22T18:51:18.590Z,23.47
2022-12-22T18:53:44.963Z,23.46
2022-12-22T18:56:11.347Z,23.43
2022-12-22T18:58:37.730Z,23.43
2022-12-22T19:01:04.165Z,23.43
2022-12-22T19:03:30.524Z,23.43
2022-12-22T19:05:56.894Z,23.38
2022-12-22T19:08:23.236Z,23.38
2022-12-22T19:10:49.624Z,23.40
2022-12-22T19:13:16.015Z,23.38
2022-12-22T19:15:42.369Z,23.35
2022-12-22T19:18:08.731Z,23.31
2022-12-22T19:20:35.111Z,23.29
2022-12-22T19:23:01.455Z,23.32
2022-12-22T19:25:27.877Z,23.30
2022-12-22T19:27:54.239Z,23.31
2022-12-22T19:30:20.633Z,23.31
2022-12-22T19:32:47.114Z,23.50
2022-12-22T19:35:13.388Z,23.45
2022-12-22T19:37:39.760Z,23.52
2022-12-22T19:40:06.167Z,23.55
2022-12-22T19:42:32.504Z,23.55
2022-12-22T19:44:58.990Z,23.56
2022-12-22T19:47:25.333Z,23.53
2022-12-22T19:49:51.755Z,23.58
2022-12-22T19:52:18.111Z,23.55
2022-12-22T19:54:44.503Z,23.54
2022-12-22T19:57:10.941Z,23.54
2022-12-22T19:59:38.959Z,23.53
2022-12-22T20:02:03.850Z,23.58
2022-12-22T20:04:30.084Z,23.65
2022-12-22T20:06:56.456Z,23.75
2022-12-22T20:09:22.817Z,23.59
2022-12-22T20:11:49.163Z,23.71
2022-12-22T20:14:15.581Z,24.25
2022-12-22T20:16:41.980Z,24.18
2022-12-22T20:19:08.327Z,23.89
2022-12-22T20:21:35.866Z,23.96
2022-12-22T20:24:01.075Z,24.12
2022-12-22T20:26:27.433Z,24.28
2022-12-22T20:28:53.840Z,24.40
2022-12-22T20:31:20.203Z,24.51
2022-12-22T20:33:46.589Z,24.56
2022-12-22T20:36:14.025Z,24.60
2022-12-22T20:38:39.332Z,23.80
2022-12-22T20:41:05.710Z,24.12
2022-12-22T20:43:32.115Z,24.42
2022-12-22T20:45:58.496Z,23.34
2022-12-22T20:48:24.836Z,23.55
2022-12-22T20:50:51.226Z,23.18
2022-12-22T20:53:17.617Z,23.13
2022-12-22T20:55:43.991Z,23.10
2022-12-22T20:58:10.380Z,23.10
2022-12-22T21:00:36.758Z,23.15
2022-12-22T21:03:03.290Z,23.20
2022-12-22T21:05:29.539Z,23.25
2022-12-22T21:07:55.941Z,23.31
2022-12-22T21:10:22.284Z,23.35
2022-12-22T21:12:48.702Z,23.41
2022-12-22T21:15:15.044Z,23.40
2022-12-22T21:17:45.927Z,23.36
2022-12-22T21:20:07.833Z,23.47
2022-12-22T21:22:34.217Z,23.56
2022-12-22T21:25:00.605Z,23.54
2022-12-22T21:27:26.981Z,23.57
2022-12-22T21:29:55.797Z,23.65
2022-12-22T21:32:22.219Z,23.74
2022-12-22T21:34:48.562Z,23.95
2022-12-22T21:37:14.965Z,24.38
2022-12-22T21:39:41.311Z,24.56
2022-12-22T21:42:07.802Z,24.53
2022-12-22T21:44:34.098Z,24.49
2022-12-22T21:47:00.460Z,24.49
2022-12-22T21:49:26.817Z,24.53
2022-12-22T21:51:53.219Z,24.54
2022-12-22T21:54:19.567Z,24.56
2022-12-22T21:56:45.980Z,24.58
2022-12-22T21:59:12.362Z,24.57
2022-12-22T22:01:38.817Z,24.57
2022-12-22T22:04:05.086Z,24.48
2022-12-22T22:06:31.548Z,23.49
2022-12-22T22:08:57.900Z,23.34
2022-12-22T22:11:24.246Z,23.32
2022-12-22T22:13:50.653Z,23.28
2022-12-22T22:16:19.432Z,23.17
2022-12-22T22:18:43.415Z,23.20
2022-12-22T22:21:09.765Z,23.07
2022-12-22T22:23:36.180Z,23.07
2022-12-22T22:26:02.532Z,23.07
2022-12-22T22:28:29.004Z,23.05
2022-12-22T22:30:55.385Z,23.02
2022-12-22T22:33:21.740Z,23.02
2022-12-22T22:35:48.097Z,22.99
2022-12-22T22:38:14.470Z,22.99
2022-12-22T22:40:40.842Z,22.99
2022-12-22T22:43:07.232Z,22.99
2022-12-22T22:45:33.613Z,23.00
2022-12-22T22:48:00.002Z,22.99
2022-12-22T22:50:26.350Z,22.99
2022-12-22T22:52:52.724Z,22.96
2022-12-22T22:55:19.087Z,22.97
2022-12-22T22:57:45.484Z,22.99
2022-12-22T23:00:11.878Z,22.98
2022-12-22T23:02:38.459Z,22.97
2022-12-22T23:05:04.629Z,22.96
2022-12-22T23:07:31.049Z,22.97
2022-12-22T23:09:57.419Z,22.99
2022-12-22T23:12:23.835Z,23.03
2022-12-22T23:14:50.181Z,23.07
2022-12-22T23:17:16.577Z,23.06
2022-12-22T23:19:42.945Z,23.06
2022-12-22T23:22:09.335Z,23.05
2022-12-22T23:24:35.673Z,23.06
2022-12-22T23:27:02.071Z,23.09
2022-12-22T23:29:28.415Z,23.06
2022-12-22T23:31:54.847Z,23.08
2022-12-22T23:34:21.202Z,23.07
2022-12-22T23:36:47.587Z,23.06
2022-12-22T23:39:13.948Z,23.05
2022-12-22T23:41:40.408Z,23.05
2022-12-22T23:44:06.734Z,23.05
2022-12-22T23:46:33.220Z,23.05
2022-12-22T23:48:59.541Z,23.05
2022-12-22T23:51:25.904Z,23.05
2022-12-22T23:53:52.302Z,23.03
2022-12-22T23:56:18.664Z,23.05
2022-12-22T23:58:48.222Z,23.02
